sensor_id;sensor_type;location;lat;lon;timestamp;P1;durP1;ratioP1;P2;durP2;ratioP2
12296;SDS011;6211;49.124;9.152;2023-04-25T00:01:04;1.90;;;1.67;;
12296;SDS011;6211;49.124;9.152;2023-04-25T00:03:31;2.70;;;1.95;;
12296;SDS011;6211;49.124;9.152;2023-04-25T00:05:58;3.30;;;2.10;;
12296;SDS011;6211;49.124;9.152;2023-04-25T00:08:27;2.40;;;2.17;;
12296;SDS011;6211;49.124;9.152;2023-04-25T00:10:55;2.38;;;2.17;;
12296;SDS011;6211;49.124;9.152;2023-04-25T00:13:22;2.00;;;1.83;;
12296;SDS011;6211;49.124;9.152;2023-04-25T00:15:50;2.15;;;1.95;;
12296;SDS011;6211;49.124;9.152;2023-04-25T00:18:18;7.82;;;2.20;;
12296;SDS011;6211;49.124;9.152;2023-04-25T00:20:45;3.83;;;2.13;;
12296;SDS011;6211;49.124;9.152;2023-04-25T00:23:12;2.22;;;1.70;;
12296;SDS011;6211;49.124;9.152;2023-04-25T00:25:42;2.30;;;2.10;;
12296;SDS011;6211;49.124;9.152;2023-04-25T00:28:11;2.33;;;1.77;;
12296;SDS011;6211;49.124;9.152;2023-04-25T00:30:38;2.42;;;2.08;;
12296;SDS011;6211;49.124;9.152;2023-04-25T00:33:05;3.53;;;1.90;;
12296;SDS011;6211;49.124;9.152;2023-04-25T00:35:32;2.03;;;1.63;;
12296;SDS011;6211;49.124;9.152;2023-04-25T00:37:59;1.50;;;1.40;;
12296;SDS011;6211;49.124;9.152;2023-04-25T00:40:27;2.55;;;2.05;;
12296;SDS011;6211;49.124;9.152;2023-04-25T00:42:54;2.20;;;1.70;;
12296;SDS011;6211;49.124;9.152;2023-04-25T00:45:23;2.03;;;1.40;;
12296;SDS011;6211;49.124;9.152;2023-04-25T00:47:54;1.75;;;1.65;;
12296;SDS011;6211;49.124;9.152;2023-04-25T00:50:21;2.13;;;1.75;;
12296;SDS011;6211;49.124;9.152;2023-04-25T00:52:48;3.35;;;2.10;;
12296;SDS011;6211;49.124;9.152;2023-04-25T00:55:15;2.38;;;2.17;;
12296;SDS011;6211;49.124;9.152;2023-04-25T00:57:43;1.70;;;1.60;;
12296;SDS011;6211;49.124;9.152;2023-04-25T01:00:10;2.20;;;1.98;;
12296;SDS011;6211;49.124;9.152;2023-04-25T01:02:39;1.70;;;1.52;;
12296;SDS011;6211;49.124;9.152;2023-04-25T01:05:07;1.70;;;1.50;;
12296;SDS011;6211;49.124;9.152;2023-04-25T01:07:34;2.17;;;1.70;;
12296;SDS011;6211;49.124;9.152;2023-04-25T01:10:01;2.58;;;1.90;;
12296;SDS011;6211;49.124;9.152;2023-04-25T01:12:29;2.20;;;2.00;;
12296;SDS011;6211;49.124;9.152;2023-04-25T01:14:57;3.15;;;1.88;;
12296;SDS011;6211;49.124;9.152;2023-04-25T01:17:24;1.58;;;1.48;;
12296;SDS011;6211;49.124;9.152;2023-04-25T01:19:53;2.42;;;2.13;;
12296;SDS011;6211;49.124;9.152;2023-04-25T01:22:22;1.63;;;1.48;;
12296;SDS011;6211;49.124;9.152;2023-04-25T01:24:49;2.13;;;1.63;;
12296;SDS011;6211;49.124;9.152;2023-04-25T01:27:16;2.40;;;1.60;;
12296;SDS011;6211;49.124;9.152;2023-04-25T01:29:43;2.95;;;1.58;;
12296;SDS011;6211;49.124;9.152;2023-04-25T01:32:11;1.67;;;1.58;;
12296;SDS011;6211;49.124;9.152;2023-04-25T01:34:38;1.70;;;1.60;;
12296;SDS011;6211;49.124;9.152;2023-04-25T01:37:05;5.68;;;2.17;;
12296;SDS011;6211;49.124;9.152;2023-04-25T01:39:33;3.10;;;1.67;;
12296;SDS011;6211;49.124;9.152;2023-04-25T01:42:00;2.78;;;1.73;;
12296;SDS011;6211;49.124;9.152;2023-04-25T01:44:27;1.80;;;1.40;;
12296;SDS011;6211;49.124;9.152;2023-04-25T01:46:55;2.22;;;1.83;;
12296;SDS011;6211;49.124;9.152;2023-04-25T01:49:22;1.50;;;1.40;;
12296;SDS011;6211;49.124;9.152;2023-04-25T01:51:49;2.22;;;1.85;;
12296;SDS011;6211;49.124;9.152;2023-04-25T01:54:16;2.30;;;1.83;;
12296;SDS011;6211;49.124;9.152;2023-04-25T01:56:49;2.38;;;1.67;;
12296;SDS011;6211;49.124;9.152;2023-04-25T01:59:17;2.28;;;1.80;;
12296;SDS011;6211;49.124;9.152;2023-04-25T02:01:46;1.60;;;1.50;;
12296;SDS011;6211;49.124;9.152;2023-04-25T02:04:13;2.08;;;1.88;;
12296;SDS011;6211;49.124;9.152;2023-04-25T02:06:41;1.92;;;1.70;;
12296;SDS011;6211;49.124;9.152;2023-04-25T02:09:08;4.88;;;2.13;;
12296;SDS011;6211;49.124;9.152;2023-04-25T02:11:35;2.47;;;2.28;;
12296;SDS011;6211;49.124;9.152;2023-04-25T02:14:03;2.45;;;1.55;;
12296;SDS011;6211;49.124;9.152;2023-04-25T02:16:30;2.30;;;2.10;;
12296;SDS011;6211;49.124;9.152;2023-04-25T02:18:57;3.38;;;2.40;;
12296;SDS011;6211;49.124;9.152;2023-04-25T02:21:25;4.25;;;1.90;;
12296;SDS011;6211;49.124;9.152;2023-04-25T02:23:52;3.00;;;2.58;;
12296;SDS011;6211;49.124;9.152;2023-04-25T02:26:19;2.97;;;1.77;;
12296;SDS011;6211;49.124;9.152;2023-04-25T02:28:48;2.88;;;2.17;;
12296;SDS011;6211;49.124;9.152;2023-04-25T02:31:17;2.42;;;1.80;;
12296;SDS011;6211;49.124;9.152;2023-04-25T02:33:45;1.83;;;1.70;;
12296;SDS011;6211;49.124;9.152;2023-04-25T02:36:13;1.60;;;1.40;;
12296;SDS011;6211;49.124;9.152;2023-04-25T02:38:40;3.75;;;2.03;;
12296;SDS011;6211;49.124;9.152;2023-04-25T02:41:07;2.60;;;2.30;;
12296;SDS011;6211;49.124;9.152;2023-04-25T02:43:34;2.13;;;1.75;;
12296;SDS011;6211;49.124;9.152;2023-04-25T02:46:01;2.90;;;2.17;;
12296;SDS011;6211;49.124;9.152;2023-04-25T02:48:30;4.88;;;1.98;;
12296;SDS011;6211;49.124;9.152;2023-04-25T02:50:57;3.10;;;1.75;;
12296;SDS011;6211;49.124;9.152;2023-04-25T02:53:24;2.08;;;1.88;;
12296;SDS011;6211;49.124;9.152;2023-04-25T02:55:51;3.10;;;1.83;;
12296;SDS011;6211;49.124;9.152;2023-04-25T02:58:18;3.42;;;1.98;;
12296;SDS011;6211;49.124;9.152;2023-04-25T03:00:45;1.90;;;1.70;;
12296;SDS011;6211;49.124;9.152;2023-04-25T03:03:12;2.17;;;1.75;;
12296;SDS011;6211;49.124;9.152;2023-04-25T03:05:43;1.67;;;1.58;;
12296;SDS011;6211;49.124;9.152;2023-04-25T03:08:11;1.33;;;1.23;;
12296;SDS011;6211;49.124;9.152;2023-04-25T03:10:38;1.40;;;1.30;;
12296;SDS011;6211;49.124;9.152;2023-04-25T03:13:06;2.05;;;1.85;;
12296;SDS011;6211;49.124;9.152;2023-04-25T03:15:34;2.60;;;1.73;;
12296;SDS011;6211;49.124;9.152;2023-04-25T03:18:02;2.22;;;2.03;;
12296;SDS011;6211;49.124;9.152;2023-04-25T03:20:29;1.90;;;1.70;;
12296;SDS011;6211;49.124;9.152;2023-04-25T03:22:57;1.67;;;1.58;;
12296;SDS011;6211;49.124;9.152;2023-04-25T03:25:24;1.98;;;1.67;;
12296;SDS011;6211;49.124;9.152;2023-04-25T03:27:51;1.92;;;1.80;;
12296;SDS011;6211;49.124;9.152;2023-04-25T03:30:18;2.35;;;1.92;;
12296;SDS011;6211;49.124;9.152;2023-04-25T03:32:45;2.75;;;2.08;;
12296;SDS011;6211;49.124;9.152;2023-04-25T03:35:12;3.05;;;2.00;;
12296;SDS011;6211;49.124;9.152;2023-04-25T03:37:40;2.67;;;1.85;;
12296;SDS011;6211;49.124;9.152;2023-04-25T03:40:11;3.42;;;2.17;;
12296;SDS011;6211;49.124;9.152;2023-04-25T03:42:39;1.75;;;1.65;;
12296;SDS011;6211;49.124;9.152;2023-04-25T03:45:06;1.63;;;1.52;;
12296;SDS011;6211;49.124;9.152;2023-04-25T03:47:34;2.40;;;1.50;;
12296;SDS011;6211;49.124;9.152;2023-04-25T03:50:01;2.80;;;2.10;;
12296;SDS011;6211;49.124;9.152;2023-04-25T03:52:28;2.40;;;1.92;;
12296;SDS011;6211;49.124;9.152;2023-04-25T03:54:55;2.85;;;2.13;;
12296;SDS011;6211;49.124;9.152;2023-04-25T03:57:23;4.53;;;2.30;;
12296;SDS011;6211;49.124;9.152;2023-04-25T03:59:50;3.20;;;1.90;;
12296;SDS011;6211;49.124;9.152;2023-04-25T04:02:18;3.30;;;2.13;;
12296;SDS011;6211;49.124;9.152;2023-04-25T04:04:45;2.20;;;2.00;;
12296;SDS011;6211;49.124;9.152;2023-04-25T04:07:12;4.55;;;2.05;;
12296;SDS011;6211;49.124;9.152;2023-04-25T04:09:39;2.00;;;1.80;;
12296;SDS011;6211;49.124;9.152;2023-04-25T04:12:06;2.53;;;2.25;;
12296;SDS011;6211;49.124;9.152;2023-04-25T04:14:35;2.20;;;1.70;;
12296;SDS011;6211;49.124;9.152;2023-04-25T04:17:02;2.60;;;1.92;;
12296;SDS011;6211;49.124;9.152;2023-04-25T04:19:29;3.13;;;2.13;;
12296;SDS011;6211;49.124;9.152;2023-04-25T04:21:56;2.20;;;2.00;;
12296;SDS011;6211;49.124;9.152;2023-04-25T04:24:23;2.28;;;1.92;;
12296;SDS011;6211;49.124;9.152;2023-04-25T04:26:50;5.13;;;2.38;;
12296;SDS011;6211;49.124;9.152;2023-04-25T04:29:17;2.72;;;2.20;;
12296;SDS011;6211;49.124;9.152;2023-04-25T04:31:49;2.42;;;2.10;;
12296;SDS011;6211;49.124;9.152;2023-04-25T04:34:17;3.50;;;2.15;;
12296;SDS011;6211;49.124;9.152;2023-04-25T04:36:44;2.75;;;2.40;;
12296;SDS011;6211;49.124;9.152;2023-04-25T04:39:12;2.78;;;2.53;;
12296;SDS011;6211;49.124;9.152;2023-04-25T04:41:39;3.03;;;2.00;;
12296;SDS011;6211;49.124;9.152;2023-04-25T04:44:06;3.22;;;2.67;;
12296;SDS011;6211;49.124;9.152;2023-04-25T04:46:33;4.05;;;2.80;;
12296;SDS011;6211;49.124;9.152;2023-04-25T04:49:04;4.47;;;2.67;;
12296;SDS011;6211;49.124;9.152;2023-04-25T04:51:31;4.73;;;2.90;;
12296;SDS011;6211;49.124;9.152;2023-04-25T04:53:58;2.20;;;2.00;;
12296;SDS011;6211;49.124;9.152;2023-04-25T04:56:27;2.55;;;2.17;;
12296;SDS011;6211;49.124;9.152;2023-04-25T04:58:55;3.13;;;2.83;;
12296;SDS011;6211;49.124;9.152;2023-04-25T05:01:23;3.63;;;2.72;;
12296;SDS011;6211;49.124;9.152;2023-04-25T05:03:50;5.30;;;2.60;;
12296;SDS011;6211;49.124;9.152;2023-04-25T05:06:18;4.18;;;2.20;;
12296;SDS011;6211;49.124;9.152;2023-04-25T05:08:46;5.32;;;2.35;;
12296;SDS011;6211;49.124;9.152;2023-04-25T05:11:14;9.35;;;3.03;;
12296;SDS011;6211;49.124;9.152;2023-04-25T05:13:41;4.78;;;2.67;;
12296;SDS011;6211;49.124;9.152;2023-04-25T05:16:08;4.82;;;2.83;;
12296;SDS011;6211;49.124;9.152;2023-04-25T05:18:35;3.42;;;2.70;;
12296;SDS011;6211;49.124;9.152;2023-04-25T05:21:02;4.82;;;2.78;;
12296;SDS011;6211;49.124;9.152;2023-04-25T05:23:30;4.38;;;2.95;;
12296;SDS011;6211;49.124;9.152;2023-04-25T05:25:58;4.00;;;3.00;;
12296;SDS011;6211;49.124;9.152;2023-04-25T05:28:25;6.60;;;2.88;;
12296;SDS011;6211;49.124;9.152;2023-04-25T05:30:52;4.47;;;2.78;;
12296;SDS011;6211;49.124;9.152;2023-04-25T05:33:19;3.88;;;2.67;;
12296;SDS011;6211;49.124;9.152;2023-04-25T05:35:46;5.95;;;2.60;;
12296;SDS011;6211;49.124;9.152;2023-04-25T05:38:13;3.63;;;2.78;;
12296;SDS011;6211;49.124;9.152;2023-04-25T05:40:42;3.53;;;2.67;;
12296;SDS011;6211;49.124;9.152;2023-04-25T05:43:09;3.58;;;2.58;;
12296;SDS011;6211;49.124;9.152;2023-04-25T05:45:36;4.40;;;3.33;;
12296;SDS011;6211;49.124;9.152;2023-04-25T05:48:03;3.33;;;2.42;;
12296;SDS011;6211;49.124;9.152;2023-04-25T05:50:30;3.95;;;3.05;;
12296;SDS011;6211;49.124;9.152;2023-04-25T05:52:57;2.83;;;2.63;;
12296;SDS011;6211;49.124;9.152;2023-04-25T05:55:24;3.70;;;2.92;;
12296;SDS011;6211;49.124;9.152;2023-04-25T05:57:53;6.60;;;3.25;;
12296;SDS011;6211;49.124;9.152;2023-04-25T06:00:20;3.97;;;2.80;;
12296;SDS011;6211;49.124;9.152;2023-04-25T06:02:48;4.40;;;2.40;;
12296;SDS011;6211;49.124;9.152;2023-04-25T06:05:15;3.78;;;2.88;;
12296;SDS011;6211;49.124;9.152;2023-04-25T06:07:42;3.88;;;2.92;;
12296;SDS011;6211;49.124;9.152;2023-04-25T06:10:10;4.03;;;2.58;;
12296;SDS011;6211;49.124;9.152;2023-04-25T06:12:37;4.25;;;2.92;;
12296;SDS011;6211;49.124;9.152;2023-04-25T06:15:06;3.50;;;2.70;;
12296;SDS011;6211;49.124;9.152;2023-04-25T06:17:33;4.28;;;3.15;;
12296;SDS011;6211;49.124;9.152;2023-04-25T06:20:00;5.30;;;2.78;;
12296;SDS011;6211;49.124;9.152;2023-04-25T06:22:28;3.70;;;2.70;;
12296;SDS011;6211;49.124;9.152;2023-04-25T06:24:55;3.13;;;2.72;;
12296;SDS011;6211;49.124;9.152;2023-04-25T06:27:25;3.20;;;2.38;;
12296;SDS011;6211;49.124;9.152;2023-04-25T06:29:52;4.38;;;3.08;;
12296;SDS011;6211;49.124;9.152;2023-04-25T06:32:20;3.50;;;2.63;;
12296;SDS011;6211;49.124;9.152;2023-04-25T06:34:47;3.88;;;2.88;;
12296;SDS011;6211;49.124;9.152;2023-04-25T06:37:15;5.90;;;2.97;;
12296;SDS011;6211;49.124;9.152;2023-04-25T06:39:42;3.67;;;2.80;;
12296;SDS011;6211;49.124;9.152;2023-04-25T06:42:09;4.13;;;2.85;;
12296;SDS011;6211;49.124;9.152;2023-04-25T06:44:36;3.35;;;2.78;;
12296;SDS011;6211;49.124;9.152;2023-04-25T06:47:04;4.18;;;3.30;;
12296;SDS011;6211;49.124;9.152;2023-04-25T06:49:32;3.63;;;3.20;;
12296;SDS011;6211;49.124;9.152;2023-04-25T06:51:59;3.42;;;2.95;;
12296;SDS011;6211;49.124;9.152;2023-04-25T06:54:26;6.07;;;3.03;;
12296;SDS011;6211;49.124;9.152;2023-04-25T06:56:54;4.03;;;3.20;;
12296;SDS011;6211;49.124;9.152;2023-04-25T06:59:22;5.75;;;3.75;;
12296;SDS011;6211;49.124;9.152;2023-04-25T07:01:49;4.45;;;2.90;;
12296;SDS011;6211;49.124;9.152;2023-04-25T07:04:16;3.83;;;3.05;;
12296;SDS011;6211;49.124;9.152;2023-04-25T07:06:44;4.70;;;3.53;;
12296;SDS011;6211;49.124;9.152;2023-04-25T07:09:13;4.55;;;3.38;;
12296;SDS011;6211;49.124;9.152;2023-04-25T07:11:40;3.67;;;2.85;;
12296;SDS011;6211;49.124;9.152;2023-04-25T07:14:07;4.30;;;3.05;;
12296;SDS011;6211;49.124;9.152;2023-04-25T07:16:34;3.47;;;3.17;;
12296;SDS011;6211;49.124;9.152;2023-04-25T07:19:01;3.50;;;3.20;;
12296;SDS011;6211;49.124;9.152;2023-04-25T07:21:28;4.40;;;3.10;;
12296;SDS011;6211;49.124;9.152;2023-04-25T07:23:58;6.10;;;3.28;;
12296;SDS011;6211;49.124;9.152;2023-04-25T07:26:25;3.70;;;2.95;;
12296;SDS011;6211;49.124;9.152;2023-04-25T07:28:53;3.72;;;3.17;;
12296;SDS011;6211;49.124;9.152;2023-04-25T07:31:20;3.50;;;2.97;;
12296;SDS011;6211;49.124;9.152;2023-04-25T07:33:47;3.17;;;2.72;;
12296;SDS011;6211;49.124;9.152;2023-04-25T07:36:14;5.85;;;2.80;;
12296;SDS011;6211;49.124;9.152;2023-04-25T07:38:41;2.92;;;2.42;;
12296;SDS011;6211;49.124;9.152;2023-04-25T07:41:10;3.63;;;3.20;;
12296;SDS011;6211;49.124;9.152;2023-04-25T07:43:37;3.35;;;2.63;;
12296;SDS011;6211;49.124;9.152;2023-04-25T07:46:04;2.92;;;2.47;;
12296;SDS011;6211;49.124;9.152;2023-04-25T07:48:31;4.70;;;2.85;;
12296;SDS011;6211;49.124;9.152;2023-04-25T07:50:58;3.25;;;2.70;;
12296;SDS011;6211;49.124;9.152;2023-04-25T07:53:25;4.95;;;3.50;;
12296;SDS011;6211;49.124;9.152;2023-04-25T07:55:52;4.38;;;3.63;;
12296;SDS011;6211;49.124;9.152;2023-04-25T07:58:21;4.18;;;3.30;;
12296;SDS011;6211;49.124;9.152;2023-04-25T08:00:48;3.28;;;2.97;;
12296;SDS011;6211;49.124;9.152;2023-04-25T08:03:15;3.60;;;3.28;;
12296;SDS011;6211;49.124;9.152;2023-04-25T08:05:42;3.85;;;2.83;;
12296;SDS011;6211;49.124;9.152;2023-04-25T08:08:09;5.50;;;3.50;;
12296;SDS011;6211;49.124;9.152;2023-04-25T08:10:36;3.65;;;3.10;;
12296;SDS011;6211;49.124;9.152;2023-04-25T08:13:04;3.40;;;3.10;;
12296;SDS011;6211;49.124;9.152;2023-04-25T08:15:32;3.88;;;3.47;;
12296;SDS011;6211;49.124;9.152;2023-04-25T08:17:59;4.32;;;3.58;;
12296;SDS011;6211;49.124;9.152;2023-04-25T08:20:26;6.80;;;3.80;;
12296;SDS011;6211;49.124;9.152;2023-04-25T08:22:53;4.50;;;3.42;;
12296;SDS011;6211;49.124;9.152;2023-04-25T08:25:20;4.72;;;3.40;;
12296;SDS011;6211;49.124;9.152;2023-04-25T08:27:48;3.35;;;3.05;;
12296;SDS011;6211;49.124;9.152;2023-04-25T08:30:15;4.03;;;3.35;;
12296;SDS011;6211;49.124;9.152;2023-04-25T08:32:43;4.55;;;3.28;;
12296;SDS011;6211;49.124;9.152;2023-04-25T08:35:10;4.60;;;3.45;;
12296;SDS011;6211;49.124;9.152;2023-04-25T08:37:37;4.53;;;3.60;;
12296;SDS011;6211;49.124;9.152;2023-04-25T08:40:06;5.13;;;3.63;;
12296;SDS011;6211;49.124;9.152;2023-04-25T08:42:35;4.13;;;3.42;;
12296;SDS011;6211;49.124;9.152;2023-04-25T08:45:04;4.72;;;3.47;;
12296;SDS011;6211;49.124;9.152;2023-04-25T08:47:31;3.85;;;3.25;;
12296;SDS011;6211;49.124;9.152;2023-04-25T08:50:01;4.35;;;3.55;;
12296;SDS011;6211;49.124;9.152;2023-04-25T08:52:30;5.93;;;3.22;;
12296;SDS011;6211;49.124;9.152;2023-04-25T08:54:59;5.55;;;3.33;;
12296;SDS011;6211;49.124;9.152;2023-04-25T08:57:27;5.93;;;3.75;;
12296;SDS011;6211;49.124;9.152;2023-04-25T08:59:56;4.70;;;4.05;;
12296;SDS011;6211;49.124;9.152;2023-04-25T09:02:23;4.72;;;3.55;;
12296;SDS011;6211;49.124;9.152;2023-04-25T09:04:51;4.28;;;3.40;;
12296;SDS011;6211;49.124;9.152;2023-04-25T09:07:20;4.30;;;3.35;;
12296;SDS011;6211;49.124;9.152;2023-04-25T09:09:47;4.70;;;3.30;;
12296;SDS011;6211;49.124;9.152;2023-04-25T09:12:15;5.85;;;3.05;;
12296;SDS011;6211;49.124;9.152;2023-04-25T09:14:42;5.22;;;3.90;;
12296;SDS011;6211;49.124;9.152;2023-04-25T09:17:09;4.70;;;3.55;;
12296;SDS011;6211;49.124;9.152;2023-04-25T09:19:36;8.35;;;3.90;;
12296;SDS011;6211;49.124;9.152;2023-04-25T09:22:05;4.20;;;3.42;;
12296;SDS011;6211;49.124;9.152;2023-04-25T09:24:34;3.90;;;3.45;;
12296;SDS011;6211;49.124;9.152;2023-04-25T09:27:05;5.35;;;3.67;;
12296;SDS011;6211;49.124;9.152;2023-04-25T09:29:32;4.60;;;3.35;;
12296;SDS011;6211;49.124;9.152;2023-04-25T09:32:10;4.88;;;3.58;;
12296;SDS011;6211;49.124;9.152;2023-04-25T09:34:38;4.75;;;3.33;;
12296;SDS011;6211;49.124;9.152;2023-04-25T09:37:06;5.00;;;3.90;;
12296;SDS011;6211;49.124;9.152;2023-04-25T09:39:35;3.97;;;3.00;;
12296;SDS011;6211;49.124;9.152;2023-04-25T09:42:03;6.03;;;3.55;;
12296;SDS011;6211;49.124;9.152;2023-04-25T09:44:30;8.18;;;3.17;;
12296;SDS011;6211;49.124;9.152;2023-04-25T09:46:57;4.60;;;3.20;;
12296;SDS011;6211;49.124;9.152;2023-04-25T09:49:24;6.60;;;3.35;;
12296;SDS011;6211;49.124;9.152;2023-04-25T09:51:55;4.80;;;3.13;;
12296;SDS011;6211;49.124;9.152;2023-04-25T09:54:23;4.13;;;2.88;;
12296;SDS011;6211;49.124;9.152;2023-04-25T09:56:52;3.78;;;2.70;;
12296;SDS011;6211;49.124;9.152;2023-04-25T09:59:20;3.97;;;3.20;;
12296;SDS011;6211;49.124;9.152;2023-04-25T10:01:48;5.30;;;3.10;;
12296;SDS011;6211;49.124;9.152;2023-04-25T10:04:17;4.82;;;3.40;;
12296;SDS011;6211;49.124;9.152;2023-04-25T10:06:45;3.65;;;2.67;;
12296;SDS011;6211;49.124;9.152;2023-04-25T10:09:12;2.38;;;1.90;;
12296;SDS011;6211;49.124;9.152;2023-04-25T10:11:40;3.05;;;2.45;;
12296;SDS011;6211;49.124;9.152;2023-04-25T10:14:09;3.40;;;2.78;;
12296;SDS011;6211;49.124;9.152;2023-04-25T10:16:36;3.85;;;2.47;;
12296;SDS011;6211;49.124;9.152;2023-04-25T10:19:04;4.20;;;2.88;;
12296;SDS011;6211;49.124;9.152;2023-04-25T10:21:32;6.25;;;2.80;;
12296;SDS011;6211;49.124;9.152;2023-04-25T10:24:00;5.95;;;2.88;;
12296;SDS011;6211;49.124;9.152;2023-04-25T10:26:27;5.93;;;2.85;;
12296;SDS011;6211;49.124;9.152;2023-04-25T10:28:55;5.65;;;2.70;;
12296;SDS011;6211;49.124;9.152;2023-04-25T10:31:24;2.47;;;2.28;;
12296;SDS011;6211;49.124;9.152;2023-04-25T10:33:51;3.00;;;2.40;;
12296;SDS011;6211;49.124;9.152;2023-04-25T10:36:19;4.32;;;3.13;;
12296;SDS011;6211;49.124;9.152;2023-04-25T10:38:47;4.50;;;2.97;;
12296;SDS011;6211;49.124;9.152;2023-04-25T10:41:15;6.13;;;3.33;;
12296;SDS011;6211;49.124;9.152;2023-04-25T10:43:44;4.32;;;3.58;;
12296;SDS011;6211;49.124;9.152;2023-04-25T10:46:13;3.70;;;2.92;;
12296;SDS011;6211;49.124;9.152;2023-04-25T10:48:45;6.22;;;3.53;;
12296;SDS011;6211;49.124;9.152;2023-04-25T10:51:15;4.95;;;4.13;;
12296;SDS011;6211;49.124;9.152;2023-04-25T10:53:43;4.97;;;3.38;;
12296;SDS011;6211;49.124;9.152;2023-04-25T10:56:11;4.22;;;3.60;;
12296;SDS011;6211;49.124;9.152;2023-04-25T10:58:41;8.35;;;4.10;;
12296;SDS011;6211;49.124;9.152;2023-04-25T11:01:09;3.95;;;3.20;;
12296;SDS011;6211;49.124;9.152;2023-04-25T11:03:38;3.53;;;3.22;;
12296;SDS011;6211;49.124;9.152;2023-04-25T11:06:06;4.63;;;3.30;;
12296;SDS011;6211;49.124;9.152;2023-04-25T11:08:37;3.80;;;3.28;;
12296;SDS011;6211;49.124;9.152;2023-04-25T11:11:10;5.38;;;3.70;;
12296;SDS011;6211;49.124;9.152;2023-04-25T11:13:37;4.68;;;3.20;;
12296;SDS011;6211;49.124;9.152;2023-04-25T11:16:06;7.28;;;3.92;;
12296;SDS011;6211;49.124;9.152;2023-04-25T11:18:33;4.63;;;2.88;;
12296;SDS011;6211;49.124;9.152;2023-04-25T11:21:01;7.35;;;3.00;;
12296;SDS011;6211;49.124;9.152;2023-04-25T11:23:31;5.97;;;3.10;;
12296;SDS011;6211;49.124;9.152;2023-04-25T11:25:58;4.03;;;3.08;;
12296;SDS011;6211;49.124;9.152;2023-04-25T11:28:26;7.88;;;3.05;;
12296;SDS011;6211;49.124;9.152;2023-04-25T11:30:53;3.75;;;3.15;;
12296;SDS011;6211;49.124;9.152;2023-04-25T11:33:22;4.22;;;3.17;;
12296;SDS011;6211;49.124;9.152;2023-04-25T11:35:49;5.60;;;3.50;;
12296;SDS011;6211;49.124;9.152;2023-04-25T11:38:17;3.80;;;3.30;;
12296;SDS011;6211;49.124;9.152;2023-04-25T11:40:45;5.05;;;3.67;;
12296;SDS011;6211;49.124;9.152;2023-04-25T11:43:16;5.88;;;4.18;;
12296;SDS011;6211;49.124;9.152;2023-04-25T11:45:45;5.35;;;4.00;;
12296;SDS011;6211;49.124;9.152;2023-04-25T11:48:13;6.00;;;3.92;;
12296;SDS011;6211;49.124;9.152;2023-04-25T11:50:40;6.43;;;4.13;;
12296;SDS011;6211;49.124;9.152;2023-04-25T11:53:07;8.60;;;4.22;;
12296;SDS011;6211;49.124;9.152;2023-04-25T11:55:35;4.88;;;3.83;;
12296;SDS011;6211;49.124;9.152;2023-04-25T11:58:04;7.65;;;4.57;;
12296;SDS011;6211;49.124;9.152;2023-04-25T12:00:31;6.28;;;3.00;;
12296;SDS011;6211;49.124;9.152;2023-04-25T12:02:58;5.43;;;3.50;;
12296;SDS011;6211;49.124;9.152;2023-04-25T12:05:28;6.63;;;3.10;;
12296;SDS011;6211;49.124;9.152;2023-04-25T12:07:55;6.40;;;3.80;;
12296;SDS011;6211;49.124;9.152;2023-04-25T12:10:24;4.63;;;3.53;;
12296;SDS011;6211;49.124;9.152;2023-04-25T12:12:51;6.15;;;3.65;;
12296;SDS011;6211;49.124;9.152;2023-04-25T12:15:22;6.82;;;3.50;;
12296;SDS011;6211;49.124;9.152;2023-04-25T12:17:51;8.65;;;4.05;;
12296;SDS011;6211;49.124;9.152;2023-04-25T12:20:18;4.95;;;3.17;;
12296;SDS011;6211;49.124;9.152;2023-04-25T12:22:48;7.68;;;3.40;;
12296;SDS011;6211;49.124;9.152;2023-04-25T12:28:08;6.78;;;3.40;;
12296;SDS011;6211;49.124;9.152;2023-04-25T12:33:20;4.18;;;3.25;;
12296;SDS011;6211;49.124;9.152;2023-04-25T12:35:47;3.65;;;3.10;;
12296;SDS011;6211;49.124;9.152;2023-04-25T12:38:20;6.47;;;3.20;;
12296;SDS011;6211;49.124;9.152;2023-04-25T12:40:47;4.47;;;2.88;;
12296;SDS011;6211;49.124;9.152;2023-04-25T12:43:14;3.00;;;2.47;;
12296;SDS011;6211;49.124;9.152;2023-04-25T12:45:41;3.50;;;2.60;;
12296;SDS011;6211;49.124;9.152;2023-04-25T12:48:08;4.95;;;3.22;;
12296;SDS011;6211;49.124;9.152;2023-04-25T12:50:37;3.38;;;2.78;;
12296;SDS011;6211;49.124;9.152;2023-04-25T12:53:04;2.72;;;2.20;;
12296;SDS011;6211;49.124;9.152;2023-04-25T12:55:31;3.78;;;2.83;;
12296;SDS011;6211;49.124;9.152;2023-04-25T12:57:58;6.97;;;3.40;;
12296;SDS011;6211;49.124;9.152;2023-04-25T13:00:25;3.35;;;2.90;;
12296;SDS011;6211;49.124;9.152;2023-04-25T13:02:53;6.28;;;3.13;;
12296;SDS011;6211;49.124;9.152;2023-04-25T13:05:20;3.45;;;3.05;;
12296;SDS011;6211;49.124;9.152;2023-04-25T13:07:48;5.68;;;2.45;;
12296;SDS011;6211;49.124;9.152;2023-04-25T13:10:16;4.13;;;2.63;;
12296;SDS011;6211;49.124;9.152;2023-04-25T13:12:43;5.63;;;2.20;;
12296;SDS011;6211;49.124;9.152;2023-04-25T13:15:10;5.07;;;2.95;;
12296;SDS011;6211;49.124;9.152;2023-04-25T13:17:38;3.35;;;2.58;;
12296;SDS011;6211;49.124;9.152;2023-04-25T13:20:05;4.53;;;3.03;;
12296;SDS011;6211;49.124;9.152;2023-04-25T13:22:33;5.80;;;2.85;;
12296;SDS011;6211;49.124;9.152;2023-04-25T13:25:03;3.97;;;2.72;;
12296;SDS011;6211;49.124;9.152;2023-04-25T13:27:30;4.03;;;2.40;;
12296;SDS011;6211;49.124;9.152;2023-04-25T13:29:58;4.93;;;2.17;;
12296;SDS011;6211;49.124;9.152;2023-04-25T13:32:26;3.58;;;2.60;;
12296;SDS011;6211;49.124;9.152;2023-04-25T13:34:53;6.75;;;1.90;;
12296;SDS011;6211;49.124;9.152;2023-04-25T13:37:21;4.07;;;2.30;;
12296;SDS011;6211;49.124;9.152;2023-04-25T13:39:49;2.53;;;1.92;;
12296;SDS011;6211;49.124;9.152;2023-04-25T13:42:17;3.03;;;1.90;;
12296;SDS011;6211;49.124;9.152;2023-04-25T13:44:44;2.42;;;2.20;;
12296;SDS011;6211;49.124;9.152;2023-04-25T13:47:11;2.42;;;2.17;;
12296;SDS011;6211;49.124;9.152;2023-04-25T13:49:39;3.35;;;2.45;;
12296;SDS011;6211;49.124;9.152;2023-04-25T13:52:06;2.42;;;2.17;;
12296;SDS011;6211;49.124;9.152;2023-04-25T13:54:33;3.38;;;2.35;;
12296;SDS011;6211;49.124;9.152;2023-04-25T13:57:00;2.38;;;1.50;;
12296;SDS011;6211;49.124;9.152;2023-04-25T13:59:29;1.50;;;1.38;;
12296;SDS011;6211;49.124;9.152;2023-04-25T14:01:56;2.38;;;1.63;;
12296;SDS011;6211;49.124;9.152;2023-04-25T14:04:23;2.58;;;2.38;;
12296;SDS011;6211;49.124;9.152;2023-04-25T14:06:51;3.75;;;2.13;;
12296;SDS011;6211;49.124;9.152;2023-04-25T14:09:18;2.10;;;1.90;;
12296;SDS011;6211;49.124;9.152;2023-04-25T14:11:50;3.45;;;1.90;;
12296;SDS011;6211;49.124;9.152;2023-04-25T14:14:17;2.42;;;1.88;;
12296;SDS011;6211;49.124;9.152;2023-04-25T14:16:46;2.33;;;1.80;;
12296;SDS011;6211;49.124;9.152;2023-04-25T14:19:13;2.25;;;1.88;;
12296;SDS011;6211;49.124;9.152;2023-04-25T14:21:41;2.10;;;1.50;;
12296;SDS011;6211;49.124;9.152;2023-04-25T14:24:08;3.50;;;1.90;;
12296;SDS011;6211;49.124;9.152;2023-04-25T14:26:36;1.90;;;1.70;;
12296;SDS011;6211;49.124;9.152;2023-04-25T14:29:03;3.67;;;2.10;;
12296;SDS011;6211;49.124;9.152;2023-04-25T14:31:31;2.47;;;1.75;;
12296;SDS011;6211;49.124;9.152;2023-04-25T14:33:59;2.63;;;1.42;;
12296;SDS011;6211;49.124;9.152;2023-04-25T14:36:27;2.10;;;1.50;;
12296;SDS011;6211;49.124;9.152;2023-04-25T14:38:55;3.00;;;1.75;;
12296;SDS011;6211;49.124;9.152;2023-04-25T14:41:23;2.85;;;1.58;;
12296;SDS011;6211;49.124;9.152;2023-04-25T14:43:50;3.67;;;1.95;;
12296;SDS011;6211;49.124;9.152;2023-04-25T14:46:17;2.63;;;1.45;;
12296;SDS011;6211;49.124;9.152;2023-04-25T14:48:45;1.73;;;1.63;;
12296;SDS011;6211;49.124;9.152;2023-04-25T14:51:14;1.40;;;1.30;;
12296;SDS011;6211;49.124;9.152;2023-04-25T14:53:41;3.78;;;1.70;;
12296;SDS011;6211;49.124;9.152;2023-04-25T14:56:08;1.73;;;1.48;;
12296;SDS011;6211;49.124;9.152;2023-04-25T14:58:35;2.72;;;1.95;;
12296;SDS011;6211;49.124;9.152;2023-04-25T15:01:03;2.05;;;1.58;;
12296;SDS011;6211;49.124;9.152;2023-04-25T15:03:31;2.78;;;1.67;;
12296;SDS011;6211;49.124;9.152;2023-04-25T15:05:58;3.97;;;2.05;;
12296;SDS011;6211;49.124;9.152;2023-04-25T15:08:27;2.72;;;2.00;;